sensor_id;sensor_type;location;lat;lon;timestamp;pressure;altitude;pressure_sealevel;temperature;humidity
66430;BME280;53242;51.694;10.006;2023-10-09T00:02:02;100008.84;;;12.41;73.39
66430;BME280;53242;51.694;10.006;2023-10-09T00:04:28;100019.47;;;12.48;72.91
66430;BME280;53242;51.694;10.006;2023-10-09T00:06:51;100014.31;;;12.40;73.36
66430;BME280;53242;51.694;10.006;2023-10-09T00:09:13;100008.63;;;12.43;72.97
66430;BME280;53242;51.694;10.006;2023-10-09T00:11:56;100009.72;;;12.48;73.24
66430;BME280;53242;51.694;10.006;2023-10-09T00:14:19;100005.75;;;12.38;73.51
66430;BME280;53242;51.694;10.006;2023-10-09T00:16:42;100002.53;;;12.42;73.31
66430;BME280;53242;51.694;10.006;2023-10-09T00:19:10;99997.78;;;12.31;73.13
66430;BME280;53242;51.694;10.006;2023-10-09T00:21:51;99991.19;;;12.20;73.12
66430;BME280;53242;51.694;10.006;2023-10-09T00:24:17;99984.03;;;12.14;73.51
66430;BME280;53242;51.694;10.006;2023-10-09T00:26:46;99974.63;;;12.11;73.70
66430;BME280;53242;51.694;10.006;2023-10-09T00:29:08;99987.53;;;12.21;73.52
66430;BME280;53242;51.694;10.006;2023-10-09T00:31:37;99993.25;;;12.25;73.44
66430;BME280;53242;51.694;10.006;2023-10-09T00:34:01;99987.63;;;12.34;73.69
66430;BME280;53242;51.694;10.006;2023-10-09T00:36:24;99986.34;;;12.24;74.00
66430;BME280;53242;51.694;10.006;2023-10-09T00:38:50;99980.44;;;12.28;73.97
66430;BME280;53242;51.694;10.006;2023-10-09T00:41:14;99957.47;;;12.29;74.24
66430;BME280;53242;51.694;10.006;2023-10-09T00:43:42;99955.44;;;12.31;74.27
66430;BME280;53242;51.694;10.006;2023-10-09T00:46:07;99954.00;;;12.28;74.82
66430;BME280;53242;51.694;10.006;2023-10-09T00:48:42;99950.72;;;12.26;75.09
66430;BME280;53242;51.694;10.006;2023-10-09T00:51:05;99950.91;;;12.25;75.21
66430;BME280;53242;51.694;10.006;2023-10-09T00:53:30;99941.94;;;12.19;75.31
66430;BME280;53242;51.694;10.006;2023-10-09T00:55:53;99932.25;;;12.33;75.45
66430;BME280;53242;51.694;10.006;2023-10-09T00:58:18;99922.00;;;12.23;76.10
66430;BME280;53242;51.694;10.006;2023-10-09T01:00:46;99919.38;;;12.30;75.79
66430;BME280;53242;51.694;10.006;2023-10-09T01:03:10;99912.72;;;12.34;76.12
66430;BME280;53242;51.694;10.006;2023-10-09T01:05:41;99906.38;;;12.35;75.63
66430;BME280;53242;51.694;10.006;2023-10-09T01:08:14;99914.28;;;12.28;76.58
66430;BME280;53242;51.694;10.006;2023-10-09T01:10:47;99918.22;;;12.39;76.27
66430;BME280;53242;51.694;10.006;2023-10-09T01:13:18;99905.53;;;12.28;76.08
66430;BME280;53242;51.694;10.006;2023-10-09T01:15:41;99880.09;;;12.27;76.67
66430;BME280;53242;51.694;10.006;2023-10-09T01:18:06;99873.41;;;12.38;76.60
66430;BME280;53242;51.694;10.006;2023-10-09T01:20:30;99889.75;;;12.48;77.03
66430;BME280;53242;51.694;10.006;2023-10-09T01:23:01;99907.28;;;12.56;77.25
66430;BME280;53242;51.694;10.006;2023-10-09T01:25:24;99903.06;;;12.68;76.56
66430;BME280;53242;51.694;10.006;2023-10-09T01:27:46;99885.75;;;12.72;76.71
66430;BME280;53242;51.694;10.006;2023-10-09T01:30:09;99874.78;;;12.75;77.07
66430;BME280;53242;51.694;10.006;2023-10-09T01:32:36;99867.84;;;12.68;77.00
66430;BME280;53242;51.694;10.006;2023-10-09T01:34:58;99862.13;;;12.64;76.63
66430;BME280;53242;51.694;10.006;2023-10-09T01:37:21;99860.28;;;12.64;76.44
66430;BME280;53242;51.694;10.006;2023-10-09T01:39:54;99854.53;;;12.47;76.91
66430;BME280;53242;51.694;10.006;2023-10-09T01:42:42;99843.31;;;12.45;77.29
66430;BME280;53242;51.694;10.006;2023-10-09T01:45:08;99839.50;;;12.61;77.57
66430;BME280;53242;51.694;10.006;2023-10-09T01:47:34;99828.50;;;12.64;77.98
66430;BME280;53242;51.694;10.006;2023-10-09T01:49:59;99834.44;;;12.66;78.35
66430;BME280;53242;51.694;10.006;2023-10-09T01:52:27;99836.06;;;12.74;78.57
66430;BME280;53242;51.694;10.006;2023-10-09T01:54:53;99835.28;;;12.80;78.92
66430;BME280;53242;51.694;10.006;2023-10-09T01:57:17;99842.59;;;12.85;78.85
66430;BME280;53242;51.694;10.006;2023-10-09T01:59:44;99850.56;;;12.92;78.49
66430;BME280;53242;51.694;10.006;2023-10-09T02:02:12;99857.72;;;12.91;79.06
66430;BME280;53242;51.694;10.006;2023-10-09T02:04:57;99856.28;;;12.89;78.23
66430;BME280;53242;51.694;10.006;2023-10-09T02:07:41;99858.91;;;12.82;77.90
66430;BME280;53242;51.694;10.006;2023-10-09T02:10:07;99870.22;;;12.56;78.57
66430;BME280;53242;51.694;10.006;2023-10-09T02:13:04;99883.53;;;12.27;79.89
66430;BME280;53242;51.694;10.006;2023-10-09T02:15:30;99878.31;;;12.34;79.31
66430;BME280;53242;51.694;10.006;2023-10-09T02:18:05;99867.03;;;12.19;79.56
66430;BME280;53242;51.694;10.006;2023-10-09T02:20:39;99861.56;;;12.27;78.86
66430;BME280;53242;51.694;10.006;2023-10-09T02:23:02;99866.50;;;12.37;78.39
66430;BME280;53242;51.694;10.006;2023-10-09T02:25:26;99874.63;;;12.35;78.14
66430;BME280;53242;51.694;10.006;2023-10-09T02:27:56;99869.94;;;12.30;78.14
66430;BME280;53242;51.694;10.006;2023-10-09T02:30:21;99867.06;;;12.25;78.23
66430;BME280;53242;51.694;10.006;2023-10-09T02:32:49;99862.25;;;12.42;77.53
66430;BME280;53242;51.694;10.006;2023-10-09T02:35:15;99855.09;;;12.36;77.35
66430;BME280;53242;51.694;10.006;2023-10-09T02:37:58;99854.28;;;12.36;77.41
66430;BME280;53242;51.694;10.006;2023-10-09T02:40:21;99841.41;;;12.32;77.53
66430;BME280;53242;51.694;10.006;2023-10-09T02:42:50;99825.38;;;12.34;77.83
66430;BME280;53242;51.694;10.006;2023-10-09T02:45:12;99828.03;;;12.41;78.06
66430;BME280;53242;51.694;10.006;2023-10-09T02:47:38;99817.25;;;12.42;77.97
66430;BME280;53242;51.694;10.006;2023-10-09T02:50:01;99802.78;;;12.45;79.41
66430;BME280;53242;51.694;10.006;2023-10-09T02:52:29;99792.63;;;12.48;80.15
66430;BME280;53242;51.694;10.006;2023-10-09T02:54:56;99797.72;;;12.57;79.63
66430;BME280;53242;51.694;10.006;2023-10-09T02:57:21;99802.78;;;12.45;78.89
66430;BME280;53242;51.694;10.006;2023-10-09T02:59:45;99802.81;;;12.58;79.39
66430;BME280;53242;51.694;10.006;2023-10-09T03:02:07;99801.22;;;12.64;80.76
66430;BME280;53242;51.694;10.006;2023-10-09T03:04:29;99792.66;;;12.69;82.33
66430;BME280;53242;51.694;10.006;2023-10-09T03:06:52;99780.47;;;12.68;83.45
66430;BME280;53242;51.694;10.006;2023-10-09T03:09:18;99781.47;;;12.73;83.72
66430;BME280;53242;51.694;10.006;2023-10-09T03:11:49;99778.22;;;12.78;84.33
66430;BME280;53242;51.694;10.006;2023-10-09T03:14:15;99777.81;;;12.81;84.92
66430;BME280;53242;51.694;10.006;2023-10-09T03:16:39;99782.31;;;12.94;84.64
66430;BME280;53242;51.694;10.006;2023-10-09T03:19:01;99771.50;;;12.89;84.53
66430;BME280;53242;51.694;10.006;2023-10-09T03:21:24;99771.47;;;12.69;83.64
66430;BME280;53242;51.694;10.006;2023-10-09T03:23:48;99773.09;;;12.70;83.93
66430;BME280;53242;51.694;10.006;2023-10-09T03:26:11;99765.16;;;12.76;84.42
66430;BME280;53242;51.694;10.006;2023-10-09T03:28:34;99752.16;;;12.88;85.33
66430;BME280;53242;51.694;10.006;2023-10-09T03:30:58;99760.91;;;12.95;85.69
66430;BME280;53242;51.694;10.006;2023-10-09T03:33:24;99750.72;;;12.99;86.57
66430;BME280;53242;51.694;10.006;2023-10-09T03:35:47;99763.56;;;13.02;87.15
66430;BME280;53242;51.694;10.006;2023-10-09T03:38:09;99759.09;;;13.09;87.00
66430;BME280;53242;51.694;10.006;2023-10-09T03:40:34;99751.13;;;13.09;90.84
66430;BME280;53242;51.694;10.006;2023-10-09T03:42:58;99755.63;;;13.09;87.72
66430;BME280;53242;51.694;10.006;2023-10-09T03:45:20;99747.06;;;13.07;87.51
66430;BME280;53242;51.694;10.006;2023-10-09T03:47:49;99732.78;;;13.14;87.33
66430;BME280;53242;51.694;10.006;2023-10-09T03:50:11;99736.22;;;13.15;87.47
66430;BME280;53242;51.694;10.006;2023-10-09T03:52:48;99745.81;;;13.16;87.99
66430;BME280;53242;51.694;10.006;2023-10-09T03:55:12;99734.81;;;13.12;87.79
66430;BME280;53242;51.694;10.006;2023-10-09T03:57:35;99728.91;;;13.17;87.39
66430;BME280;53242;51.694;10.006;2023-10-09T03:59:57;99733.00;;;13.13;88.77
66430;BME280;53242;51.694;10.006;2023-10-09T04:02:19;99732.97;;;13.20;88.24
66430;BME280;53242;51.694;10.006;2023-10-09T04:04:44;99732.97;;;13.20;89.09
66430;BME280;53242;51.694;10.006;2023-10-09T04:07:09;99722.59;;;13.18;88.92
66430;BME280;53242;51.694;10.006;2023-10-09T04:09:32;99720.34;;;13.15;89.19
66430;BME280;53242;51.694;10.006;2023-10-09T04:12:01;99729.31;;;13.21;89.38
66430;BME280;53242;51.694;10.006;2023-10-09T04:14:32;99711.16;;;13.31;89.13
66430;BME280;53242;51.694;10.006;2023-10-09T04:16:55;99709.13;;;13.26;89.08
66430;BME280;53242;51.694;10.006;2023-10-09T04:19:38;99710.34;;;13.30;89.73
66430;BME280;53242;51.694;10.006;2023-10-09T04:22:10;99715.22;;;13.33;89.59
66430;BME280;53242;51.694;10.006;2023-10-09T04:24:48;99708.53;;;13.38;89.36
66430;BME280;53242;51.694;10.006;2023-10-09T04:27:10;99710.56;;;13.36;89.72
66430;BME280;53242;51.694;10.006;2023-10-09T04:29:35;99700.34;;;13.39;90.33
66430;BME280;53242;51.694;10.006;2023-10-09T04:32:01;99706.88;;;13.43;90.24
66430;BME280;53242;51.694;10.006;2023-10-09T04:34:23;99698.72;;;13.45;90.34
66430;BME280;53242;51.694;10.006;2023-10-09T04:36:50;99696.47;;;13.48;89.65
66430;BME280;53242;51.694;10.006;2023-10-09T04:39:20;99696.47;;;13.48;89.94
66430;BME280;53242;51.694;10.006;2023-10-09T04:41:51;99696.03;;;13.52;90.08
66430;BME280;53242;51.694;10.006;2023-10-09T04:44:14;99694.41;;;13.51;90.77
66430;BME280;53242;51.694;10.006;2023-10-09T04:46:46;99691.94;;;13.56;90.09
66430;BME280;53242;51.694;10.006;2023-10-09T04:49:28;99702.16;;;13.59;89.46
66430;BME280;53242;51.694;10.006;2023-10-09T04:51:50;99697.03;;;13.64;89.52
66430;BME280;53242;51.694;10.006;2023-10-09T04:54:29;99699.06;;;13.62;89.27
66430;BME280;53242;51.694;10.006;2023-10-09T04:57:23;99699.03;;;13.69;89.27
66430;BME280;53242;51.694;10.006;2023-10-09T04:59:47;99706.16;;;13.75;89.00
66430;BME280;53242;51.694;10.006;2023-10-09T05:02:10;99701.66;;;13.75;89.67
66430;BME280;53242;51.694;10.006;2023-10-09T05:04:41;99699.00;;;13.75;89.56
66430;BME280;53242;51.694;10.006;2023-10-09T05:07:04;99704.94;;;13.77;89.33
66430;BME280;53242;51.694;10.006;2023-10-09T05:09:45;99703.47;;;13.81;89.33
66430;BME280;53242;51.694;10.006;2023-10-09T05:12:17;99699.81;;;13.82;89.19
66430;BME280;53242;51.694;10.006;2023-10-09T05:14:40;99705.91;;;13.83;89.39
66430;BME280;53242;51.694;10.006;2023-10-09T05:17:07;99715.28;;;13.86;88.85
66430;BME280;53242;51.694;10.006;2023-10-09T05:19:37;99708.56;;;13.90;89.24
66430;BME280;53242;51.694;10.006;2023-10-09T05:22:17;99719.19;;;13.90;89.29
66430;BME280;53242;51.694;10.006;2023-10-09T05:24:51;99725.50;;;13.89;89.42
66430;BME280;53242;51.694;10.006;2023-10-09T05:27:16;99727.50;;;13.93;88.89
66430;BME280;53242;51.694;10.006;2023-10-09T05:29:46;99734.06;;;13.97;88.57
66430;BME280;53242;51.694;10.006;2023-10-09T05:32:21;99727.50;;;14.00;88.72
66430;BME280;53242;51.694;10.006;2023-10-09T05:34:52;99723.81;;;14.01;88.81
66430;BME280;53242;51.694;10.006;2023-10-09T05:37:23;99733.19;;;14.04;88.65
66430;BME280;53242;51.694;10.006;2023-10-09T05:39:55;99727.69;;;13.98;88.81
66430;BME280;53242;51.694;10.006;2023-10-09T05:42:24;99724.25;;;13.98;88.93
66430;BME280;53242;51.694;10.006;2023-10-09T05:44:51;99733.22;;;13.97;89.23
66430;BME280;53242;51.694;10.006;2023-10-09T05:47:32;99726.84;;;14.05;89.02
66430;BME280;53242;51.694;10.006;2023-10-09T05:49:55;99724.59;;;14.08;88.71
66430;BME280;53242;51.694;10.006;2023-10-09T05:52:29;99727.88;;;14.04;89.01
66430;BME280;53242;51.694;10.006;2023-10-09T05:54:54;99728.28;;;14.07;88.48
66430;BME280;53242;51.694;10.006;2023-10-09T05:57:37;99728.44;;;14.12;88.91
66430;BME280;53242;51.694;10.006;2023-10-09T06:00:18;99735.81;;;14.10;88.75
66430;BME280;53242;51.694;10.006;2023-10-09T06:02:59;99743.94;;;14.22;88.58
66430;BME280;53242;51.694;10.006;2023-10-09T06:05:40;99756.97;;;14.24;88.20
66430;BME280;53242;51.694;10.006;2023-10-09T06:08:03;99764.91;;;14.30;87.80
66430;BME280;53242;51.694;10.006;2023-10-09T06:10:29;99766.50;;;14.38;87.13
66430;BME280;53242;51.694;10.006;2023-10-09T06:13:01;99771.63;;;14.33;87.59
66430;BME280;53242;51.694;10.006;2023-10-09T06:15:26;99768.13;;;14.39;87.29
66430;BME280;53242;51.694;10.006;2023-10-09T06:18:13;99766.72;;;14.37;87.54
66430;BME280;53242;51.694;10.006;2023-10-09T06:20:48;99757.91;;;14.43;87.15
66430;BME280;53242;51.694;10.006;2023-10-09T06:23:29;99755.66;;;14.40;87.23
66430;BME280;53242;51.694;10.006;2023-10-09T06:26:10;99743.63;;;14.37;87.70
66430;BME280;53242;51.694;10.006;2023-10-09T06:28:46;99751.00;;;14.35;87.92
66430;BME280;53242;51.694;10.006;2023-10-09T06:31:13;99748.53;;;14.40;87.68
66430;BME280;53242;51.694;10.006;2023-10-09T06:33:59;99751.78;;;14.42;87.53
66430;BME280;53242;51.694;10.006;2023-10-09T06:36:37;99748.88;;;14.51;87.31
66430;BME280;53242;51.694;10.006;2023-10-09T06:39:14;99751.94;;;14.47;88.26
66430;BME280;53242;51.694;10.006;2023-10-09T06:41:56;99758.66;;;14.57;87.37
66430;BME280;53242;51.694;10.006;2023-10-09T06:44:33;99767.59;;;14.62;87.07
66430;BME280;53242;51.694;10.006;2023-10-09T06:47:14;99786.16;;;14.69;86.89
66430;BME280;53242;51.694;10.006;2023-10-09T06:49:40;99794.31;;;14.74;86.96
66430;BME280;53242;51.694;10.006;2023-10-09T06:52:22;99785.31;;;14.75;86.54
66430;BME280;53242;51.694;10.006;2023-10-09T06:55:05;99783.22;;;14.84;86.40
66430;BME280;53242;51.694;10.006;2023-10-09T06:57:41;99776.66;;;14.87;86.33
66430;BME280;53242;51.694;10.006;2023-10-09T07:00:06;99771.75;;;14.84;86.79
66430;BME280;53242;51.694;10.006;2023-10-09T07:02:57;99761.34;;;14.82;87.30
66430;BME280;53242;51.694;10.006;2023-10-09T07:05:20;99780.78;;;14.83;87.09
66430;BME280;53242;51.694;10.006;2023-10-09T07:07:43;99793.00;;;14.90;86.78
66430;BME280;53242;51.694;10.006;2023-10-09T07:10:14;99787.28;;;14.87;86.92
66430;BME280;53242;51.694;10.006;2023-10-09T07:12:51;99796.41;;;14.98;86.64
66430;BME280;53242;51.694;10.006;2023-10-09T07:15:17;99792.50;;;15.00;86.51
66430;BME280;53242;51.694;10.006;2023-10-09T07:17:57;99799.22;;;15.03;86.52
66430;BME280;53242;51.694;10.006;2023-10-09T07:20:40;99806.19;;;15.04;86.55
66430;BME280;53242;51.694;10.006;2023-10-09T07:23:07;99802.72;;;15.03;86.79
66430;BME280;53242;51.694;10.006;2023-10-09T07:25:41;99801.31;;;14.94;87.10
66430;BME280;53242;51.694;10.006;2023-10-09T07:28:03;99796.50;;;15.09;86.62
66430;BME280;53242;51.694;10.006;2023-10-09T07:30:40;99800.41;;;15.07;86.65
66430;BME280;53242;51.694;10.006;2023-10-09T07:33:04;99809.63;;;15.04;87.19
66430;BME280;53242;51.694;10.006;2023-10-09T07:35:32;99805.94;;;15.05;87.29
66430;BME280;53242;51.694;10.006;2023-10-09T07:38:04;99813.97;;;14.99;87.61
66430;BME280;53242;51.694;10.006;2023-10-09T07:40:32;99816.69;;;14.92;88.00
66430;BME280;53242;51.694;10.006;2023-10-09T07:43:14;99820.09;;;14.99;87.71
66430;BME280;53242;51.694;10.006;2023-10-09T07:45:38;99831.97;;;14.96;88.08
66430;BME280;53242;51.694;10.006;2023-10-09T07:48:01;99831.13;;;15.03;87.91
66430;BME280;53242;51.694;10.006;2023-10-09T07:50:25;99822.56;;;15.01;88.02
66430;BME280;53242;51.694;10.006;2023-10-09T07:52:52;99817.25;;;15.01;87.95
66430;BME280;53242;51.694;10.006;2023-10-09T07:55:39;99818.28;;;15.00;88.84
66430;BME280;53242;51.694;10.006;2023-10-09T07:58:01;99824.16;;;15.02;88.62
66430;BME280;53242;51.694;10.006;2023-10-09T08:00:33;99826.63;;;15.03;88.67
66430;BME280;53242;51.694;10.006;2023-10-09T08:02:58;99829.47;;;15.08;88.20
66430;BME280;53242;51.694;10.006;2023-10-09T08:05:22;99823.09;;;15.09;88.61
66430;BME280;53242;51.694;10.006;2023-10-09T08:07:55;99825.81;;;15.03;89.10
66430;BME280;53242;51.694;10.006;2023-10-09T08:10:20;99815.50;;;15.13;89.22
66430;BME280;53242;51.694;10.006;2023-10-09T08:12:42;99813.88;;;15.12;88.99
66430;BME280;53242;51.694;10.006;2023-10-09T08:15:20;99813.69;;;15.13;89.24
66430;BME280;53242;51.694;10.006;2023-10-09T08:17:47;99819.78;;;15.14;89.48
66430;BME280;53242;51.694;10.006;2023-10-09T08:20:27;99815.91;;;15.17;89.46
66430;BME280;53242;51.694;10.006;2023-10-09T08:22:54;99801.81;;;15.16;89.66
66430;BME280;53242;51.694;10.006;2023-10-09T08:25:19;99806.28;;;15.16;90.27
66430;BME280;53242;51.694;10.006;2023-10-09T08:28:17;99805.25;;;15.17;89.88
66430;BME280;53242;51.694;10.006;2023-10-09T08:30:39;99805.19;;;15.23;90.12
66430;BME280;53242;51.694;10.006;2023-10-09T08:33:17;99804.47;;;15.16;90.20
66430;BME280;53242;51.694;10.006;2023-10-09T08:35:48;99803.94;;;15.26;90.24
66430;BME280;53242;51.694;10.006;2023-10-09T08:38:11;99809.72;;;15.23;90.47
66430;BME280;53242;51.694;10.006;2023-10-09T08:40:35;99811.69;;;15.27;90.64
66430;BME280;53242;51.694;10.006;2023-10-09T08:43:09;99817.00;;;15.34;90.85
66430;BME280;53242;51.694;10.006;2023-10-09T08:45:32;99808.47;;;15.25;91.13
66430;BME280;53242;51.694;10.006;2023-10-09T08:47:55;99799.88;;;15.23;91.17
66430;BME280;53242;51.694;10.006;2023-10-09T08:50:18;99797.78;;;15.32;90.93
66430;BME280;53242;51.694;10.006;2023-10-09T08:52:41;99806.19;;;15.29;91.43
66430;BME280;53242;51.694;10.006;2023-10-09T08:55:04;99798.00;;;15.31;92.04
66430;BME280;53242;51.694;10.006;2023-10-09T08:57:28;99786.69;;;15.35;91.82
66430;BME280;53242;51.694;10.006;2023-10-09T08:59:53;99779.94;;;15.33;91.60
66430;BME280;53242;51.694;10.006;2023-10-09T09:02:15;99787.81;;;15.46;91.38
66430;BME280;53242;51.694;10.006;2023-10-09T09:04:39;99796.13;;;15.56;90.87
66430;BME280;53242;51.694;10.006;2023-10-09T09:07:01;99790.63;;;15.51;93.13
66430;BME280;53242;51.694;10.006;2023-10-09T09:09:24;99790.91;;;15.43;91.95
66430;BME280;53242;51.694;10.006;2023-10-09T09:11:50;99786.72;;;15.54;91.74
66430;BME280;53242;51.694;10.006;2023-10-09T09:14:12;99779.78;;;15.53;91.98
66430;BME280;53242;51.694;10.006;2023-10-09T09:16:41;99779.47;;;15.61;92.03
66430;BME280;53242;51.694;10.006;2023-10-09T09:19:10;99772.91;;;15.63;92.52
66430;BME280;53242;51.694;10.006;2023-10-09T09:21:34;99767.88;;;15.74;92.16
66430;BME280;53242;51.694;10.006;2023-10-09T09:24:08;99766.63;;;15.76;91.89
66430;BME280;53242;51.694;10.006;2023-10-09T09:26:45;99754.72;;;15.79;92.05
66430;BME280;53242;51.694;10.006;2023-10-09T09:29:08;99766.84;;;15.75;92.53
66430;BME280;53242;51.694;10.006;2023-10-09T09:31:31;99769.09;;;15.78;92.62
66430;BME280;53242;51.694;10.006;2023-10-09T09:34:00;99769.13;;;15.71;92.95
66430;BME280;53242;51.694;10.006;2023-10-09T09:36:25;99763.81;;;15.71;92.94
66430;BME280;53242;51.694;10.006;2023-10-09T09:38:51;99769.13;;;15.71;92.92
66430;BME280;53242;51.694;10.006;2023-10-09T09:41:15;99782.28;;;15.66;92.88
66430;BME280;53242;51.694;10.006;2023-10-09T09:43:47;99780.09;;;15.82;92.17
66430;BME280;53242;51.694;10.006;2023-10-09T09:46:10;99779.22;;;15.88;91.96
66430;BME280;53242;51.694;10.006;2023-10-09T09:48:43;99775.53;;;15.89;92.47
66430;BME280;53242;51.694;10.006;2023-10-09T09:51:07;99765.78;;;15.83;92.72
66430;BME280;53242;51.694;10.006;2023-10-09T09:53:30;99773.25;;;15.92;91.44
66430;BME280;53242;51.694;10.006;2023-10-09T09:55:57;99757.50;;;15.91;91.85
66430;BME280;53242;51.694;10.006;2023-10-09T09:58:20;99753.72;;;15.99;91.77
66430;BME280;53242;51.694;10.006;2023-10-09T10:00:43;99755.28;;;16.06;91.46
66430;BME280;53242;51.694;10.006;2023-10-09T10:03:11;99748.91;;;16.07;91.32
66430;BME280;53242;51.694;10.006;2023-10-09T10:05:35;99737.22;;;16.08;91.45
66430;BME280;53242;51.694;10.006;2023-10-09T10:07:59;99745.34;;;16.14;91.13
66430;BME280;53242;51.694;10.006;2023-10-09T10:10:37;99730.84;;;16.09;91.36
66430;BME280;53242;51.694;10.006;2023-10-09T10:13:01;99719.97;;;16.11;91.81
66430;BME280;53242;51.694;10.006;2023-10-09T10:15:23;99724.03;;;16.14;91.66
66430;BME280;53242;51.694;10.006;2023-10-09T10:18:06;99714.25;;;16.26;91.82
66430;BME280;53242;51.694;10.006;2023-10-09T10:20:29;99713.59;;;16.31;91.30
66430;BME280;53242;51.694;10.006;2023-10-09T10:25:47;99717.19;;;16.36;90.95
66430;BME280;53242;51.694;10.006;2023-10-09T10:28:19;99720.50;;;16.32;91.85
66430;BME280;53242;51.694;10.006;2023-10-09T10:30:50;99713.72;;;16.36;91.47
66430;BME280;53242;51.694;10.006;2023-10-09T10:33:13;99719.75;;;16.43;91.60
66430;BME280;53242;51.694;10.006;2023-10-09T10:35:38;99721.00;;;16.40;91.65
66430;BME280;53242;51.694;10.006;2023-10-09T10:38:31;99723.22;;;16.43;91.81
66430;BME280;53242;51.694;10.006;2023-10-09T10:41:31;99713.00;;;16.40;91.95
66430;BME280;53242;51.694;10.006;2023-10-09T10:44:00;99715.00;;;16.45;91.39
66430;BME280;53242;51.694;10.006;2023-10-09T10:46:23;99702.81;;;16.37;92.81
66430;BME280;53242;51.694;10.006;2023-10-09T10:48:52;99704.25;;;16.52;92.13
66430;BME280;53242;51.694;10.006;2023-10-09T10:51:35;99696.50;;;16.50;91.96
66430;BME280;53242;51.694;10.006;2023-10-09T10:54:01;99691.53;;;16.54;91.87
66430;BME280;53242;51.694;10.006;2023-10-09T10:56:44;99707.75;;;16.64;91.48
66430;BME280;53242;51.694;10.006;2023-10-09T10:59:07;99704.72;;;16.60;91.84
66430;BME280;53242;51.694;10.006;2023-10-09T11:01:33;99710.31;;;16.83;91.01
66430;BME280;53242;51.694;10.006;2023-10-09T11:04:16;99705.00;;;16.83;90.85
66430;BME280;53242;51.694;10.006;2023-10-09T11:06:51;99698.97;;;16.87;91.25
66430;BME280;53242;51.694;10.006;2023-10-09T11:09:13;99698.88;;;16.94;90.69
66430;BME280;53242;51.694;10.006;2023-10-09T11:11:45;99705.47;;;16.80;91.02
66430;BME280;53242;51.694;10.006;2023-10-09T11:14:13;99703.72;;;16.85;89.42
66430;BME280;53242;51.694;10.006;2023-10-09T11:16:40;99695.47;;;16.87;89.96
66430;BME280;53242;51.694;10.006;2023-10-09T11:19:13;99687.50;;;16.87;89.51
66430;BME280;53242;51.694;10.006;2023-10-09T11:21:54;99676.25;;;16.85;90.02
66430;BME280;53242;51.694;10.006;2023-10-09T11:24:29;99673.72;;;16.90;90.19
66430;BME280;53242;51.694;10.006;2023-10-09T11:26:57;99677.22;;;16.90;90.23
66430;BME280;53242;51.694;10.006;2023-10-09T11:29:27;99668.81;;;16.87;90.46
66430;BME280;53242;51.694;10.006;2023-10-09T11:34:47;99666.66;;;16.96;90.14
66430;BME280;53242;51.694;10.006;2023-10-09T11:37:16;99666.91;;;16.94;90.02
66430;BME280;53242;51.694;10.006;2023-10-09T11:39:53;99666.41;;;17.09;89.84
66430;BME280;53242;51.694;10.006;2023-10-09T11:42:18;99664.56;;;17.21;89.27
66430;BME280;53242;51.694;10.006;2023-10-09T11:44:57;99660.41;;;17.14;89.54
66430;BME280;53242;51.694;10.006;2023-10-09T11:47:34;99662.56;;;17.17;89.71
66430;BME280;53242;51.694;10.006;2023-10-09T11:49:58;99669.53;;;17.18;88.93
66430;BME280;53242;51.694;10.006;2023-10-09T11:52:34;99672.44;;;17.16;88.94
66430;BME280;53242;51.694;10.006;2023-10-09T11:55:18;99690.88;;;17.18;89.01
66430;BME280;53242;51.694;10.006;2023-10-09T11:57:41;99696.09;;;17.24;88.83
66430;BME280;53242;51.694;10.006;2023-10-09T12:00:04;99712.44;;;17.16;89.28
66430;BME280;53242;51.694;10.006;2023-10-09T12:02:33;99717.31;;;17.07;89.60
66430;BME280;53242;51.694;10.006;2023-10-09T12:05:06;99722.75;;;17.13;89.04
66430;BME280;53242;51.694;10.006;2023-10-09T12:07:30;99723.00;;;16.99;89.08
66430;BME280;53242;51.694;10.006;2023-10-09T12:09:52;99734.22;;;17.01;88.73
66430;BME280;53242;51.694;10.006;2023-10-09T12:12:18;99741.06;;;16.97;88.82
66430;BME280;53242;51.694;10.006;2023-10-09T12:14:41;99752.22;;;16.94;89.05
66430;BME280;53242;51.694;10.006;2023-10-09T12:17:04;99765.63;;;16.87;89.48
66430;BME280;53242;51.694;10.006;2023-10-09T12:19:27;99775.09;;;16.83;89.87
66430;BME280;53242;51.694;10.006;2023-10-09T12:21:52;99765.56;;;16.75;90.45
66430;BME280;53242;51.694;10.006;2023-10-09T12:24:14;99749.72;;;16.81;90.08
66430;BME280;53242;51.694;10.006;2023-10-09T12:26:41;99757.00;;;16.73;90.48
66430;BME280;53242;51.694;10.006;2023-10-09T12:29:05;99752.47;;;16.74;89.96
66430;BME280;53242;51.694;10.006;2023-10-09T12:31:33;99752.69;;;16.60;90.78
66430;BME280;53242;51.694;10.006;2023-10-09T12:33:56;99751.53;;;16.56;90.80
66430;BME280;53242;51.694;10.006;2023-10-09T12:36:21;99731.63;;;16.59;90.72
66430;BME280;53242;51.694;10.006;2023-10-09T12:38:43;99733.56;;;16.64;90.85
66430;BME280;53242;51.694;10.006;2023-10-09T12:41:08;99743.88;;;16.60;91.13
66430;BME280;53242;51.694;10.006;2023-10-09T12:43:41;99746.63;;;16.53;91.81
66430;BME280;53242;51.694;10.006;2023-10-09T12:46:06;99756.00;;;16.44;93.16
66430;BME280;53242;51.694;10.006;2023-10-09T12:48:29;99752.84;;;16.35;93.63
66430;BME280;53242;51.694;10.006;2023-10-09T12:50:54;99755.28;;;16.37;94.18
66430;BME280;53242;51.694;10.006;2023-10-09T12:53:16;99752.97;;;16.40;94.55
66430;BME280;53242;51.694;10.006;2023-10-09T12:55:40;99743.94;;;16.41;94.48
66430;BME280;53242;51.694;10.006;2023-10-09T12:58:07;99746.59;;;16.41;94.73
66430;BME280;53242;51.694;10.006;2023-10-09T13:00:30;99754.94;;;16.33;94.92
66430;BME280;53242;51.694;10.006;2023-10-09T13:02:54;99745.13;;;16.46;95.34
66430;BME280;53242;51.694;10.006;2023-10-09T13:05:18;99738.63;;;16.41;94.95